sensor_id;sensor_type;location;lat;lon;timestamp;temperature;humidity
52387;DHT22;38317;53.084;6.960;2023-10-08T00:00:26;13.00;99.90
52387;DHT22;38317;53.084;6.960;2023-10-08T00:03:09;13.00;99.90
52387;DHT22;38317;53.084;6.960;2023-10-08T00:05:36;13.00;99.90
52387;DHT22;38317;53.084;6.960;2023-10-08T00:08:02;13.00;99.90
52387;DHT22;38317;53.084;6.960;2023-10-08T00:10:37;13.00;99.90
52387;DHT22;38317;53.084;6.960;2023-10-08T00:13:05;13.00;99.90
52387;DHT22;38317;53.084;6.960;2023-10-08T00:15:38;13.10;99.90
52387;DHT22;38317;53.084;6.960;2023-10-08T00:18:07;13.10;99.90
52387;DHT22;38317;53.084;6.960;2023-10-08T00:20:37;13.10;99.90
52387;DHT22;38317;53.084;6.960;2023-10-08T00:23:23;13.10;99.90
52387;DHT22;38317;53.084;6.960;2023-10-08T00:25:54;13.10;99.90
52387;DHT22;38317;53.084;6.960;2023-10-08T00:28:23;13.10;99.90
52387;DHT22;38317;53.084;6.960;2023-10-08T00:30:50;13.10;99.90
52387;DHT22;38317;53.084;6.960;2023-10-08T00:33:15;13.10;99.90
52387;DHT22;38317;53.084;6.960;2023-10-08T00:35:42;13.10;99.90
52387;DHT22;38317;53.084;6.960;2023-10-08T00:38:08;13.10;99.90
52387;DHT22;38317;53.084;6.960;2023-10-08T00:40:42;13.10;99.90
52387;DHT22;38317;53.084;6.960;2023-10-08T00:43:30;13.10;99.90
52387;DHT22;38317;53.084;6.960;2023-10-08T00:45:58;13.20;99.90
52387;DHT22;38317;53.084;6.960;2023-10-08T00:48:28;13.20;99.90
52387;DHT22;38317;53.084;6.960;2023-10-08T00:51:00;13.10;99.90
52387;DHT22;38317;53.084;6.960;2023-10-08T00:53:36;13.10;99.90
52387;DHT22;38317;53.084;6.960;2023-10-08T00:56:06;13.10;99.90
52387;DHT22;38317;53.084;6.960;2023-10-08T00:58:41;13.10;99.90
52387;DHT22;38317;53.084;6.960;2023-10-08T01:01:07;13.10;99.90
52387;DHT22;38317;53.084;6.960;2023-10-08T01:03:38;13.10;99.90
52387;DHT22;38317;53.084;6.960;2023-10-08T01:06:11;13.20;99.90
52387;DHT22;38317;53.084;6.960;2023-10-08T01:08:38;13.20;99.90
52387;DHT22;38317;53.084;6.960;2023-10-08T01:11:17;13.20;99.90
52387;DHT22;38317;53.084;6.960;2023-10-08T01:13:43;13.20;99.90
52387;DHT22;38317;53.084;6.960;2023-10-08T01:16:11;13.10;99.90
52387;DHT22;38317;53.084;6.960;2023-10-08T01:18:37;13.10;99.90
52387;DHT22;38317;53.084;6.960;2023-10-08T01:21:08;13.10;99.90
52387;DHT22;38317;53.084;6.960;2023-10-08T01:23:36;13.10;99.90
52387;DHT22;38317;53.084;6.960;2023-10-08T01:26:04;13.10;99.90
52387;DHT22;38317;53.084;6.960;2023-10-08T01:28:40;13.10;99.90
52387;DHT22;38317;53.084;6.960;2023-10-08T01:31:08;13.10;99.90
52387;DHT22;38317;53.084;6.960;2023-10-08T01:33:38;13.10;99.90
52387;DHT22;38317;53.084;6.960;2023-10-08T01:36:04;13.10;99.90
52387;DHT22;38317;53.084;6.960;2023-10-08T01:38:31;13.10;99.90
52387;DHT22;38317;53.084;6.960;2023-10-08T01:40:58;13.10;99.90
52387;DHT22;38317;53.084;6.960;2023-10-08T01:43:29;13.10;99.90
52387;DHT22;38317;53.084;6.960;2023-10-08T01:45:55;12.90;99.90
52387;DHT22;38317;53.084;6.960;2023-10-08T01:48:21;13.10;99.90
52387;DHT22;38317;53.084;6.960;2023-10-08T01:51:03;13.10;99.90
52387;DHT22;38317;53.084;6.960;2023-10-08T01:53:35;13.10;99.90
52387;DHT22;38317;53.084;6.960;2023-10-08T01:56:01;13.10;99.90
52387;DHT22;38317;53.084;6.960;2023-10-08T01:58:30;13.10;99.90
52387;DHT22;38317;53.084;6.960;2023-10-08T02:00:56;13.20;99.90
52387;DHT22;38317;53.084;6.960;2023-10-08T02:03:26;13.20;99.90
52387;DHT22;38317;53.084;6.960;2023-10-08T02:05:53;13.10;99.90
52387;DHT22;38317;53.084;6.960;2023-10-08T02:08:19;13.10;99.90
52387;DHT22;38317;53.084;6.960;2023-10-08T02:10:46;13.10;99.90
52387;DHT22;38317;53.084;6.960;2023-10-08T02:13:15;13.10;99.90
52387;DHT22;38317;53.084;6.960;2023-10-08T02:15:44;13.10;99.90
52387;DHT22;38317;53.084;6.960;2023-10-08T02:18:10;13.10;99.90
52387;DHT22;38317;53.084;6.960;2023-10-08T02:20:36;13.10;99.90
52387;DHT22;38317;53.084;6.960;2023-10-08T02:23:02;13.10;99.90
52387;DHT22;38317;53.084;6.960;2023-10-08T02:25:31;13.30;99.90
52387;DHT22;38317;53.084;6.960;2023-10-08T02:27:57;13.10;99.90
52387;DHT22;38317;53.084;6.960;2023-10-08T02:30:23;13.10;99.90
52387;DHT22;38317;53.084;6.960;2023-10-08T02:32:49;13.10;99.90
52387;DHT22;38317;53.084;6.960;2023-10-08T02:35:15;13.10;99.90
52387;DHT22;38317;53.084;6.960;2023-10-08T02:37:41;13.10;99.90
52387;DHT22;38317;53.084;6.960;2023-10-08T02:40:08;13.10;99.90
52387;DHT22;38317;53.084;6.960;2023-10-08T02:42:56;13.10;99.90
52387;DHT22;38317;53.084;6.960;2023-10-08T02:45:29;13.00;99.90
52387;DHT22;38317;53.084;6.960;2023-10-08T02:47:56;13.00;99.90
52387;DHT22;38317;53.084;6.960;2023-10-08T02:50:22;13.00;99.90
52387;DHT22;38317;53.084;6.960;2023-10-08T02:52:51;13.00;99.90
52387;DHT22;38317;53.084;6.960;2023-10-08T02:55:18;13.00;99.90
52387;DHT22;38317;53.084;6.960;2023-10-08T02:58:02;13.00;99.90
52387;DHT22;38317;53.084;6.960;2023-10-08T03:00:29;13.00;99.90
52387;DHT22;38317;53.084;6.960;2023-10-08T03:03:01;13.00;99.90
52387;DHT22;38317;53.084;6.960;2023-10-08T03:05:35;13.00;99.90
52387;DHT22;38317;53.084;6.960;2023-10-08T03:08:02;13.00;99.90
52387;DHT22;38317;53.084;6.960;2023-10-08T03:10:39;13.00;99.90
52387;DHT22;38317;53.084;6.960;2023-10-08T03:13:05;13.00;99.90
52387;DHT22;38317;53.084;6.960;2023-10-08T03:15:33;13.00;99.90
52387;DHT22;38317;53.084;6.960;2023-10-08T03:18:06;13.00;99.90
52387;DHT22;38317;53.084;6.960;2023-10-08T03:20:38;13.00;99.90
52387;DHT22;38317;53.084;6.960;2023-10-08T03:23:09;13.00;99.90
52387;DHT22;38317;53.084;6.960;2023-10-08T03:25:52;13.00;99.90
52387;DHT22;38317;53.084;6.960;2023-10-08T03:28:24;12.80;99.90
52387;DHT22;38317;53.084;6.960;2023-10-08T03:30:51;13.00;99.90
52387;DHT22;38317;53.084;6.960;2023-10-08T03:33:21;12.90;99.90
52387;DHT22;38317;53.084;6.960;2023-10-08T03:35:52;12.90;99.90
52387;DHT22;38317;53.084;6.960;2023-10-08T03:38:21;12.90;99.90
52387;DHT22;38317;53.084;6.960;2023-10-08T03:40:56;12.90;99.90
52387;DHT22;38317;53.084;6.960;2023-10-08T03:43:27;12.90;99.90
52387;DHT22;38317;53.084;6.960;2023-10-08T03:46:19;12.80;99.90
52387;DHT22;38317;53.084;6.960;2023-10-08T03:48:47;12.80;99.90
52387;DHT22;38317;53.084;6.960;2023-10-08T03:51:23;12.80;99.90
52387;DHT22;38317;53.084;6.960;2023-10-08T03:53:53;12.80;99.90
52387;DHT22;38317;53.084;6.960;2023-10-08T03:56:32;12.90;99.90
52387;DHT22;38317;53.084;6.960;2023-10-08T03:59:02;12.90;99.90
52387;DHT22;38317;53.084;6.960;2023-10-08T04:01:46;12.80;99.90
52387;DHT22;38317;53.084;6.960;2023-10-08T04:04:14;12.80;99.90
52387;DHT22;38317;53.084;6.960;2023-10-08T04:06:41;12.90;99.90
52387;DHT22;38317;53.084;6.960;2023-10-08T04:09:17;12.80;99.90
52387;DHT22;38317;53.084;6.960;2023-10-08T04:11:46;12.80;99.90
52387;DHT22;38317;53.084;6.960;2023-10-08T04:14:12;12.90;99.90
52387;DHT22;38317;53.084;6.960;2023-10-08T04:16:38;12.90;99.90
52387;DHT22;38317;53.084;6.960;2023-10-08T04:19:04;12.90;99.90
52387;DHT22;38317;53.084;6.960;2023-10-08T04:21:30;12.90;99.90
52387;DHT22;38317;53.084;6.960;2023-10-08T04:23:59;12.90;99.90
52387;DHT22;38317;53.084;6.960;2023-10-08T04:26:32;12.90;99.90
52387;DHT22;38317;53.084;6.960;2023-10-08T04:28:59;12.90;99.90
52387;DHT22;38317;53.084;6.960;2023-10-08T04:31:31;12.90;99.90
52387;DHT22;38317;53.084;6.960;2023-10-08T04:34:04;12.90;99.90
52387;DHT22;38317;53.084;6.960;2023-10-08T04:36:43;12.90;99.90
52387;DHT22;38317;53.084;6.960;2023-10-08T04:39:11;12.90;99.90
52387;DHT22;38317;53.084;6.960;2023-10-08T04:41:41;12.90;99.90
52387;DHT22;38317;53.084;6.960;2023-10-08T04:44:14;12.90;99.90
52387;DHT22;38317;53.084;6.960;2023-10-08T04:46:44;12.90;99.90
52387;DHT22;38317;53.084;6.960;2023-10-08T04:49:17;12.90;99.90
52387;DHT22;38317;53.084;6.960;2023-10-08T04:51:55;13.00;99.90
52387;DHT22;38317;53.084;6.960;2023-10-08T04:54:31;12.90;99.90
52387;DHT22;38317;53.084;6.960;2023-10-08T04:57:01;12.90;99.90
52387;DHT22;38317;53.084;6.960;2023-10-08T04:59:30;12.90;99.90
52387;DHT22;38317;53.084;6.960;2023-10-08T05:02:05;12.90;99.90
52387;DHT22;38317;53.084;6.960;2023-10-08T05:05:06;12.90;99.90
52387;DHT22;38317;53.084;6.960;2023-10-08T05:07:37;12.90;99.90
52387;DHT22;38317;53.084;6.960;2023-10-08T05:10:26;12.90;99.90
52387;DHT22;38317;53.084;6.960;2023-10-08T05:12:53;12.90;99.90
52387;DHT22;38317;53.084;6.960;2023-10-08T05:15:31;12.90;99.90
52387;DHT22;38317;53.084;6.960;2023-10-08T05:18:16;12.90;99.90
52387;DHT22;38317;53.084;6.960;2023-10-08T05:20:52;12.90;99.90
52387;DHT22;38317;53.084;6.960;2023-10-08T05:23:19;12.90;99.90
52387;DHT22;38317;53.084;6.960;2023-10-08T05:25:55;12.90;99.90
52387;DHT22;38317;53.084;6.960;2023-10-08T05:28:27;12.90;99.90
52387;DHT22;38317;53.084;6.960;2023-10-08T05:30:55;12.90;99.90
52387;DHT22;38317;53.084;6.960;2023-10-08T05:33:37;12.90;99.90
52387;DHT22;38317;53.084;6.960;2023-10-08T05:36:22;12.90;99.90
52387;DHT22;38317;53.084;6.960;2023-10-08T05:39:00;12.90;99.90
52387;DHT22;38317;53.084;6.960;2023-10-08T05:41:29;12.90;99.90
52387;DHT22;38317;53.084;6.960;2023-10-08T05:44:06;12.80;99.90
52387;DHT22;38317;53.084;6.960;2023-10-08T05:46:53;12.80;99.90
52387;DHT22;38317;53.084;6.960;2023-10-08T05:49:19;12.80;99.90
52387;DHT22;38317;53.084;6.960;2023-10-08T05:51:57;12.80;99.90
52387;DHT22;38317;53.084;6.960;2023-10-08T05:54:32;12.80;99.90
52387;DHT22;38317;53.084;6.960;2023-10-08T05:57:08;12.80;99.90
52387;DHT22;38317;53.084;6.960;2023-10-08T06:02:39;12.80;99.90
52387;DHT22;38317;53.084;6.960;2023-10-08T06:05:25;12.80;99.90
52387;DHT22;38317;53.084;6.960;2023-10-08T06:07:58;12.80;99.90
52387;DHT22;38317;53.084;6.960;2023-10-08T06:10:36;12.90;99.90
52387;DHT22;38317;53.084;6.960;2023-10-08T06:13:08;12.80;99.90
52387;DHT22;38317;53.084;6.960;2023-10-08T06:18:21;12.90;99.90
52387;DHT22;38317;53.084;6.960;2023-10-08T06:20:55;12.90;99.90
52387;DHT22;38317;53.084;6.960;2023-10-08T06:23:22;12.90;99.90
52387;DHT22;38317;53.084;6.960;2023-10-08T06:25:52;12.90;99.90
52387;DHT22;38317;53.084;6.960;2023-10-08T06:28:25;12.90;99.90
52387;DHT22;38317;53.084;6.960;2023-10-08T06:30:55;12.90;99.90
52387;DHT22;38317;53.084;6.960;2023-10-08T06:33:23;13.00;99.90
52387;DHT22;38317;53.084;6.960;2023-10-08T06:35:56;13.00;99.90
52387;DHT22;38317;53.084;6.960;2023-10-08T06:38:29;13.00;99.90
52387;DHT22;38317;53.084;6.960;2023-10-08T06:41:02;13.00;99.90
52387;DHT22;38317;53.084;6.960;2023-10-08T06:43:36;13.00;99.90
52387;DHT22;38317;53.084;6.960;2023-10-08T06:46:03;13.00;99.90
52387;DHT22;38317;53.084;6.960;2023-10-08T06:48:32;13.00;99.90
52387;DHT22;38317;53.084;6.960;2023-10-08T06:51:00;13.10;99.90
52387;DHT22;38317;53.084;6.960;2023-10-08T06:53:41;13.10;99.90
52387;DHT22;38317;53.084;6.960;2023-10-08T06:56:07;13.20;99.90
52387;DHT22;38317;53.084;6.960;2023-10-08T06:58:38;13.20;99.90
52387;DHT22;38317;53.084;6.960;2023-10-08T07:01:04;13.30;99.90
52387;DHT22;38317;53.084;6.960;2023-10-08T07:03:31;13.30;99.90
52387;DHT22;38317;53.084;6.960;2023-10-08T07:05:58;13.30;99.90
52387;DHT22;38317;53.084;6.960;2023-10-08T07:08:28;13.30;99.90
52387;DHT22;38317;53.084;6.960;2023-10-08T07:10:57;13.30;99.90
52387;DHT22;38317;53.084;6.960;2023-10-08T07:13:24;13.30;99.90
52387;DHT22;38317;53.084;6.960;2023-10-08T07:15:51;13.30;99.90
52387;DHT22;38317;53.084;6.960;2023-10-08T07:18:18;13.40;99.90
52387;DHT22;38317;53.084;6.960;2023-10-08T07:21:02;13.40;99.90
52387;DHT22;38317;53.084;6.960;2023-10-08T07:23:37;13.40;99.90
52387;DHT22;38317;53.084;6.960;2023-10-08T07:26:19;13.40;99.90
52387;DHT22;38317;53.084;6.960;2023-10-08T07:28:50;13.40;99.90
52387;DHT22;38317;53.084;6.960;2023-10-08T07:31:19;13.50;99.90
52387;DHT22;38317;53.084;6.960;2023-10-08T07:33:56;13.50;99.90
52387;DHT22;38317;53.084;6.960;2023-10-08T07:36:26;13.60;99.90
52387;DHT22;38317;53.084;6.960;2023-10-08T07:38:53;13.60;99.90
52387;DHT22;38317;53.084;6.960;2023-10-08T07:41:19;13.70;99.90
52387;DHT22;38317;53.084;6.960;2023-10-08T07:43:49;13.70;99.90
52387;DHT22;38317;53.084;6.960;2023-10-08T07:46:25;13.70;99.90
52387;DHT22;38317;53.084;6.960;2023-10-08T07:48:54;13.70;99.90
52387;DHT22;38317;53.084;6.960;2023-10-08T07:51:20;13.70;99.90
52387;DHT22;38317;53.084;6.960;2023-10-08T07:53:52;13.70;99.90
52387;DHT22;38317;53.084;6.960;2023-10-08T07:56:25;13.70;99.90
52387;DHT22;38317;53.084;6.960;2023-10-08T07:58:52;13.70;99.90
52387;DHT22;38317;53.084;6.960;2023-10-08T08:01:17;13.70;99.90
52387;DHT22;38317;53.084;6.960;2023-10-08T08:03:46;13.70;99.90
52387;DHT22;38317;53.084;6.960;2023-10-08T08:06:14;13.70;99.90
52387;DHT22;38317;53.084;6.960;2023-10-08T08:08:41;13.70;99.90
52387;DHT22;38317;53.084;6.960;2023-10-08T08:11:08;13.80;99.90
52387;DHT22;38317;53.084;6.960;2023-10-08T08:13:41;13.80;99.90
52387;DHT22;38317;53.084;6.960;2023-10-08T08:16:11;13.80;99.90
52387;DHT22;38317;53.084;6.960;2023-10-08T08:18:47;13.80;99.90
52387;DHT22;38317;53.084;6.960;2023-10-08T08:21:14;13.80;99.90
52387;DHT22;38317;53.084;6.960;2023-10-08T08:23:45;13.80;99.90
52387;DHT22;38317;53.084;6.960;2023-10-08T08:26:23;14.00;99.90
52387;DHT22;38317;53.084;6.960;2023-10-08T08:28:59;14.00;99.90
52387;DHT22;38317;53.084;6.960;2023-10-08T08:31:30;14.10;99.90
52387;DHT22;38317;53.084;6.960;2023-10-08T08:33:58;14.20;99.90
52387;DHT22;38317;53.084;6.960;2023-10-08T08:36:30;14.20;99.90
52387;DHT22;38317;53.084;6.960;2023-10-08T08:38:57;14.30;99.90
52387;DHT22;38317;53.084;6.960;2023-10-08T08:41:23;14.30;99.90
52387;DHT22;38317;53.084;6.960;2023-10-08T08:43:51;14.30;99.90
52387;DHT22;38317;53.084;6.960;2023-10-08T08:46:35;14.30;99.90
52387;DHT22;38317;53.084;6.960;2023-10-08T08:49:06;14.30;99.90
52387;DHT22;38317;53.084;6.960;2023-10-08T08:51:34;14.30;99.90
52387;DHT22;38317;53.084;6.960;2023-10-08T08:54:01;14.30;99.90
52387;DHT22;38317;53.084;6.960;2023-10-08T08:56:33;14.30;99.90
52387;DHT22;38317;53.084;6.960;2023-10-08T08:59:01;14.30;99.90
52387;DHT22;38317;53.084;6.960;2023-10-08T09:01:28;14.40;99.90
52387;DHT22;38317;53.084;6.960;2023-10-08T09:04:02;14.40;99.90
52387;DHT22;38317;53.084;6.960;2023-10-08T09:06:37;14.40;99.90
52387;DHT22;38317;53.084;6.960;2023-10-08T09:09:07;14.40;99.90
52387;DHT22;38317;53.084;6.960;2023-10-08T09:11:52;14.40;99.90
52387;DHT22;38317;53.084;6.960;2023-10-08T09:14:22;14.50;99.90
52387;DHT22;38317;53.084;6.960;2023-10-08T09:16:49;14.50;99.90
52387;DHT22;38317;53.084;6.960;2023-10-08T09:19:16;14.70;99.90
52387;DHT22;38317;53.084;6.960;2023-10-08T09:22:22;14.70;99.90
52387;DHT22;38317;53.084;6.960;2023-10-08T09:24:49;14.70;99.90
52387;DHT22;38317;53.084;6.960;2023-10-08T09:27:14;14.80;99.90
52387;DHT22;38317;53.084;6.960;2023-10-08T09:29:44;14.80;99.90
52387;DHT22;38317;53.084;6.960;2023-10-08T09:32:12;14.80;99.90
52387;DHT22;38317;53.084;6.960;2023-10-08T09:34:49;14.90;99.90
52387;DHT22;38317;53.084;6.960;2023-10-08T09:37:17;14.90;99.90
52387;DHT22;38317;53.084;6.960;2023-10-08T09:39:44;15.00;99.90
52387;DHT22;38317;53.084;6.960;2023-10-08T09:42:12;15.00;99.90
52387;DHT22;38317;53.084;6.960;2023-10-08T09:44:39;15.00;99.90
52387;DHT22;38317;53.084;6.960;2023-10-08T09:47:07;15.00;99.90
52387;DHT22;38317;53.084;6.960;2023-10-08T09:50:01;15.00;99.90
52387;DHT22;38317;53.084;6.960;2023-10-08T09:52:36;15.00;99.90
52387;DHT22;38317;53.084;6.960;2023-10-08T09:55:09;15.10;99.90
52387;DHT22;38317;53.084;6.960;2023-10-08T09:57:38;15.10;99.90
52387;DHT22;38317;53.084;6.960;2023-10-08T10:00:08;15.10;99.90
52387;DHT22;38317;53.084;6.960;2023-10-08T10:02:58;15.10;99.90
52387;DHT22;38317;53.084;6.960;2023-10-08T10:05:31;15.10;99.90
52387;DHT22;38317;53.084;6.960;2023-10-08T10:07:58;15.10;99.90
52387;DHT22;38317;53.084;6.960;2023-10-08T10:10:28;15.10;99.90
52387;DHT22;38317;53.084;6.960;2023-10-08T10:12:58;15.20;99.90
52387;DHT22;38317;53.084;6.960;2023-10-08T10:15:25;15.20;99.90
52387;DHT22;38317;53.084;6.960;2023-10-08T10:17:51;15.20;99.90
52387;DHT22;38317;53.084;6.960;2023-10-08T10:20:17;15.20;99.90
52387;DHT22;38317;53.084;6.960;2023-10-08T10:22:45;15.10;99.90
52387;DHT22;38317;53.084;6.960;2023-10-08T10:25:16;15.30;99.90
52387;DHT22;38317;53.084;6.960;2023-10-08T10:30:17;15.30;99.90
52387;DHT22;38317;53.084;6.960;2023-10-08T10:32:44;15.20;99.90
52387;DHT22;38317;53.084;6.960;2023-10-08T10:35:16;15.30;99.90
52387;DHT22;38317;53.084;6.960;2023-10-08T10:37:45;15.30;99.90
52387;DHT22;38317;53.084;6.960;2023-10-08T10:40:23;15.40;99.90
52387;DHT22;38317;53.084;6.960;2023-10-08T10:42:58;15.40;99.90
52387;DHT22;38317;53.084;6.960;2023-10-08T10:45:28;15.50;99.90
52387;DHT22;38317;53.084;6.960;2023-10-08T10:48:08;15.60;99.90
52387;DHT22;38317;53.084;6.960;2023-10-08T10:50:47;15.80;99.90
52387;DHT22;38317;53.084;6.960;2023-10-08T10:53:38;15.80;99.90
52387;DHT22;38317;53.084;6.960;2023-10-08T10:56:22;16.00;99.90
52387;DHT22;38317;53.084;6.960;2023-10-08T10:59:00;16.10;99.90
52387;DHT22;38317;53.084;6.960;2023-10-08T11:01:31;16.10;99.90
52387;DHT22;38317;53.084;6.960;2023-10-08T11:04:10;16.00;99.90
52387;DHT22;38317;53.084;6.960;2023-10-08T11:06:43;16.10;99.90
52387;DHT22;38317;53.084;6.960;2023-10-08T11:09:10;16.30;99.90
52387;DHT22;38317;53.084;6.960;2023-10-08T11:11:50;16.40;99.90
52387;DHT22;38317;53.084;6.960;2023-10-08T11:14:20;16.40;99.90
52387;DHT22;38317;53.084;6.960;2023-10-08T11:16:50;16.40;99.90
52387;DHT22;38317;53.084;6.960;2023-10-08T11:19:19;16.40;99.90
52387;DHT22;38317;53.084;6.960;2023-10-08T11:21:52;16.50;99.90
52387;DHT22;38317;53.084;6.960;2023-10-08T11:24:30;16.60;99.90
52387;DHT22;38317;53.084;6.960;2023-10-08T11:27:02;16.70;99.90
52387;DHT22;38317;53.084;6.960;2023-10-08T11:29:44;16.80;99.90
52387;DHT22;38317;53.084;6.960;2023-10-08T11:32:12;16.90;99.90
52387;DHT22;38317;53.084;6.960;2023-10-08T11:34:39;16.90;99.90
52387;DHT22;38317;53.084;6.960;2023-10-08T11:37:05;17.00;99.90
52387;DHT22;38317;53.084;6.960;2023-10-08T11:39:48;16.90;99.90
52387;DHT22;38317;53.084;6.960;2023-10-08T11:42:15;16.90;99.90
52387;DHT22;38317;53.084;6.960;2023-10-08T11:44:58;16.80;99.90
52387;DHT22;38317;53.084;6.960;2023-10-08T11:47:27;16.70;99.90
52387;DHT22;38317;53.084;6.960;2023-10-08T11:50:01;16.70;99.90
52387;DHT22;38317;53.084;6.960;2023-10-08T11:52:37;16.70;99.90
52387;DHT22;38317;53.084;6.960;2023-10-08T11:55:11;16.70;99.90
52387;DHT22;38317;53.084;6.960;2023-10-08T11:57:46;16.70;99.90
52387;DHT22;38317;53.084;6.960;2023-10-08T12:00:15;16.70;99.90
52387;DHT22;38317;53.084;6.960;2023-10-08T12:02:51;16.70;99.90
52387;DHT22;38317;53.084;6.960;2023-10-08T12:05:20;16.70;99.90
52387;DHT22;38317;53.084;6.960;2023-10-08T12:07:52;16.70;99.90
52387;DHT22;38317;53.084;6.960;2023-10-08T12:10:19;16.80;99.90
52387;DHT22;38317;53.084;6.960;2023-10-08T12:12:54;16.80;99.90
52387;DHT22;38317;53.084;6.960;2023-10-08T12:15:23;16.80;99.90
52387;DHT22;38317;53.084;6.960;2023-10-08T12:17:55;16.80;99.90
52387;DHT22;38317;53.084;6.960;2023-10-08T12:20:40;16.70;99.90
52387;DHT22;38317;53.084;6.960;2023-10-08T12:23:10;16.70;99.90
52387;DHT22;38317;53.084;6.960;2023-10-08T12:25:58;16.70;99.90
52387;DHT22;38317;53.084;6.960;2023-10-08T12:28:26;16.80;99.90
52387;DHT22;38317;53.084;6.960;2023-10-08T12:30:54;16.70;99.90
52387;DHT22;38317;53.084;6.960;2023-10-08T12:33:24;16.70;99.90
52387;DHT22;38317;53.084;6.960;2023-10-08T12:35:52;16.70;99.90
52387;DHT22;38317;53.084;6.960;2023-10-08T12:38:29;16.70;99.90
52387;DHT22;38317;53.084;6.960;2023-10-08T12:40:55;16.70;99.90
52387;DHT22;38317;53.084;6.960;2023-10-08T12:43:21;16.70;99.90
52387;DHT22;38317;53.084;6.960;2023-10-08T12:45:51;16.70;99.90
52387;DHT22;38317;53.084;6.960;2023-10-08T12:48:25;16.80;99.90
52387;DHT22;38317;53.084;6.960;2023-10-08T12:50:54;17.00;99.90
52387;DHT22;38317;53.084;6.960;2023-10-08T12:55:55;17.20;99.90
52387;DHT22;38317;53.084;6.960;2023-10-08T12:58:24;17.40;99.90
52387;DHT22;38317;53.084;6.960;2023-10-08T13:00:52;17.50;99.90
52387;DHT22;38317;53.084;6.960;2023-10-08T13:03:26;17.50;99.90
52387;DHT22;38317;53.084;6.960;2023-10-08T13:05:56;17.60;99.90
52387;DHT22;38317;53.084;6.960;2023-10-08T13:08:33;17.70;99.90
52387;DHT22;38317;53.084;6.960;2023-10-08T13:11:01;17.70;99.90
52387;DHT22;38317;53.084;6.960;2023-10-08T13:13:28;17.70;99.90
52387;DHT22;38317;53.084;6.960;2023-10-08T13:15:54;17.80;99.90
52387;DHT22;38317;53.084;6.960;2023-10-08T13:18:24;17.80;99.90
52387;DHT22;38317;53.084;6.960;2023-10-08T13:20:51;17.90;99.90
52387;DHT22;38317;53.084;6.960;2023-10-08T13:23:21;18.00;99.90
52387;DHT22;38317;53.084;6.960;2023-10-08T13:25:52;18.00;99.90
52387;DHT22;38317;53.084;6.960;2023-10-08T13:28:24;17.90;99.90
52387;DHT22;38317;53.084;6.960;2023-10-08T13:30:52;17.80;99.90
52387;DHT22;38317;53.084;6.960;2023-10-08T13:33:20;17.80;99.90
52387;DHT22;38317;53.084;6.960;2023-10-08T13:35:46;17.70;99.90
52387;DHT22;38317;53.084;6.960;2023-10-08T13:38:19;17.60;99.90
52387;DHT22;38317;53.084;6.960;2023-10-08T13:40:49;17.70;99.90
52387;DHT22;38317;53.084;6.960;2023-10-08T13:43:34;17.70;99.90
52387;DHT22;38317;53.084;6.960;2023-10-08T13:46:07;17.80;99.90
52387;DHT22;38317;53.084;6.960;2023-10-08T13:48:40;17.80;99.90
52387;DHT22;38317;53.084;6.960;2023-10-08T13:51:06;17.80;99.90
52387;DHT22;38317;53.084;6.960;2023-10-08T13:53:42;17.80;99.90
52387;DHT22;38317;53.084;6.960;2023-10-08T13:56:11;17.80;99.90
52387;DHT22;38317;53.084;6.960;2023-10-08T13:58:38;17.60;99.90
52387;DHT22;38317;53.084;6.960;2023-10-08T14:01:12;17.50;99.90
52387;DHT22;38317;53.084;6.960;2023-10-08T14:03:50;17.40;99.90
52387;DHT22;38317;53.084;6.960;2023-10-08T14:06:19;17.40;99.90
52387;DHT22;38317;53.084;6.960;2023-10-08T14:08:47;17.30;99.90
52387;DHT22;38317;53.084;6.960;2023-10-08T14:11:21;17.60;99.90
52387;DHT22;38317;53.084;6.960;2023-10-08T14:13:53;17.30;99.90
52387;DHT22;38317;53.084;6.960;2023-10-08T14:16:19;17.30;99.90
52387;DHT22;38317;53.084;6.960;2023-10-08T14:18:52;17.20;99.90
52387;DHT22;38317;53.084;6.960;2023-10-08T14:21:26;17.10;99.90
52387;DHT22;38317;53.084;6.960;2023-10-08T14:23:59;17.10;99.90
52387;DHT22;38317;53.084;6.960;2023-10-08T14:26:32;16.90;99.90
52387;DHT22;38317;53.084;6.960;2023-10-08T14:29:02;16.80;99.90
52387;DHT22;38317;53.084;6.960;2023-10-08T14:31:43;16.70;99.90
52387;DHT22;38317;53.084;6.960;2023-10-08T14:34:14;16.60;99.90
52387;DHT22;38317;53.084;6.960;2023-10-08T14:36:48;16.50;99.90
52387;DHT22;38317;53.084;6.960;2023-10-08T14:39:33;16.40;99.90
52387;DHT22;38317;53.084;6.960;2023-10-08T14:42:20;16.30;99.90
52387;DHT22;38317;53.084;6.960;2023-10-08T14:45:05;16.30;99.90
52387;DHT22;38317;53.084;6.960;2023-10-08T14:47:39;16.30;99.90
52387;DHT22;38317;53.084;6.960;2023-10-08T14:50:05;16.20;99.90
52387;DHT22;38317;53.084;6.960;2023-10-08T14:52:35;16.20;99.90
52387;DHT22;38317;53.084;6.960;2023-10-08T14:55:04;16.10;99.90
52387;DHT22;38317;53.084;6.960;2023-10-08T14:57:30;16.10;99.90
52387;DHT22;38317;53.084;6.960;2023-10-08T14:59:56;16.10;99.90
52387;DHT22;38317;53.084;6.960;2023-10-08T15:02:23;16.10;99.90
52387;DHT22;38317;53.084;6.960;2023-10-08T15:04:54;16.20;99.90
52387;DHT22;38317;53.084;6.960;2023-10-08T15:07:22;16.20;99.90
52387;DHT22;38317;53.084;6.960;2023-10-08T15:09:48;16.30;99.90
52387;DHT22;38317;53.084;6.960;2023-10-08T15:12:15;16.30;99.90
52387;DHT22;38317;53.084;6.960;2023-10-08T15:14:43;16.30;99.90
52387;DHT22;38317;53.084;6.960;2023-10-08T15:17:09;16.20;99.90
52387;DHT22;38317;53.084;6.960;2023-10-08T15:19:35;16.20;99.90
52387;DHT22;38317;53.084;6.960;2023-10-08T15:22:01;16.20;99.90
52387;DHT22;38317;53.084;6.960;2023-10-08T15:24:28;16.20;99.90
52387;DHT22;38317;53.084;6.960;2023-10-08T15:26:55;16.20;99.90
52387;DHT22;38317;53.084;6.960;2023-10-08T15:29:21;16.10;99.90
52387;DHT22;38317;53.084;6.960;2023-10-08T15:31:54;16.00;99.90
52387;DHT22;38317;53.084;6.960;2023-10-08T15:34:21;15.90;99.90
52387;DHT22;38317;53.084;6.960;2023-10-08T15:36:49;15.90;99.90
52387;DHT22;38317;53.084;6.960;2023-10-08T15:39:15;15.80;99.90
52387;DHT22;38317;53.084;6.960;2023-10-08T15:41:51;15.80;99.90
52387;DHT22;38317;53.084;6.960;2023-10-08T15:44:20;15.80;99.90
52387;DHT22;38317;53.084;6.960;2023-10-08T15:46:50;15.70;99.90
52387;DHT22;38317;53.084;6.960;2023-10-08T15:49:17;15.70;99.90
52387;DHT22;38317;53.084;6.960;2023-10-08T15:51:47;15.60;99.90
52387;DHT22;38317;53.084;6.960;2023-10-08T15:54:15;15.60;99.90
52387;DHT22;38317;53.084;6.960;2023-10-08T15:56:46;15.60;99.90
52387;DHT22;38317;53.084;6.960;2023-10-08T15:59:12;15.50;99.90
52387;DHT22;38317;53.084;6.960;2023-10-08T16:01:38;15.50;99.90
52387;DHT22;38317;53.084;6.960;2023-10-08T16:04:03;15.40;99.90
52387;DHT22;38317;53.084;6.960;2023-10-08T16:06:31;15.40;99.90